createdAt,value
2024-02-13T00:00:27.820Z,100647.41
2024-02-13T00:02:54.884Z,100645.63
2024-02-13T00:05:21.863Z,100662.28
2024-02-13T00:07:49.919Z,100667.50
2024-02-13T00:10:17.086Z,100673.66
2024-02-13T00:12:44.232Z,100675.44
2024-02-13T00:15:15.458Z,100678.03
2024-02-13T00:17:42.916Z,100681.53
2024-02-13T00:20:11.324Z,100682.41
2024-02-13T00:22:38.284Z,100686.81
2024-02-13T00:25:06.835Z,100689.50
2024-02-13T00:27:34.697Z,100691.34
2024-02-13T00:30:04.760Z,100695.78
2024-02-13T00:32:33.469Z,100689.69
2024-02-13T00:35:00.913Z,100695.88
2024-02-13T00:37:27.874Z,100702.94
2024-02-13T00:39:55.537Z,100698.59
2024-02-13T00:42:22.590Z,100705.66
2024-02-13T00:44:50.629Z,100702.13
2024-02-13T00:47:19.161Z,100703.94
2024-02-13T00:49:46.527Z,100705.72
2024-02-13T00:52:13.925Z,100716.31
2024-02-13T00:54:41.007Z,100714.56
2024-02-13T00:57:08.720Z,100710.22
2024-02-13T00:59:35.594Z,100725.16
2024-02-13T01:02:02.509Z,100719.06
2024-02-13T01:04:31.081Z,100728.75
2024-02-13T01:06:58.152Z,100730.50
2024-02-13T01:09:30.973Z,100733.19
2024-02-13T01:11:57.891Z,100730.53
2024-02-13T01:14:24.690Z,100734.06
2024-02-13T01:16:51.506Z,100737.59
2024-02-13T01:19:21.494Z,100746.41
2024-02-13T01:21:49.056Z,100751.69
2024-02-13T01:24:16.798Z,100742.88
2024-02-13T01:26:45.067Z,100753.44
2024-02-13T01:29:13.073Z,100749.06
2024-02-13T01:31:40.086Z,100756.09
2024-02-13T01:34:11.210Z,100772.84
2024-02-13T01:36:38.914Z,100767.56
2024-02-13T01:39:06.176Z,100765.81
2024-02-13T01:41:33.183Z,100767.59
2024-02-13T01:44:00.926Z,100774.59
2024-02-13T01:46:29.807Z,100774.59
2024-02-13T01:49:01.069Z,100775.47
2024-02-13T01:51:31.042Z,100776.34
2024-02-13T01:54:04.430Z,100778.94
2024-02-13T01:56:34.662Z,100784.19
2024-02-13T01:59:04.612Z,100785.03
2024-02-13T02:01:32.654Z,100792.94
2024-02-13T02:04:01.339Z,100791.09
2024-02-13T02:08:56.336Z,100791.00
2024-02-13T02:11:26.199Z,100798.00
2024-02-13T02:13:53.820Z,100794.44
2024-02-13T02:16:20.687Z,100796.19
2024-02-13T02:18:47.688Z,100796.19
2024-02-13T02:21:15.654Z,100795.28
2024-02-13T02:23:42.591Z,100796.09
2024-02-13T02:26:09.546Z,100798.75
2024-02-13T02:28:36.395Z,100800.47
2024-02-13T02:31:03.271Z,100811.00
2024-02-13T02:33:30.169Z,100815.41
2024-02-13T02:35:57.177Z,100816.28
2024-02-13T02:38:24.307Z,100828.66
2024-02-13T02:40:51.229Z,100811.97
2024-02-13T02:43:18.272Z,100824.31
2024-02-13T02:45:46.285Z,100830.50
2024-02-13T02:48:15.603Z,100830.53
2024-02-13T02:50:43.283Z,100829.66
2024-02-13T02:53:10.355Z,100827.06
2024-02-13T02:55:37.254Z,100837.63
2024-02-13T02:58:04.179Z,100841.19
2024-02-13T03:00:30.993Z,100840.31
2024-02-13T03:02:58.123Z,100844.78
2024-02-13T03:05:27.226Z,100841.25
2024-02-13T03:07:54.342Z,100840.41
2024-02-13T03:10:21.563Z,100845.72
2024-02-13T03:12:48.678Z,100859.81
2024-02-13T03:15:15.542Z,100847.50
2024-02-13T03:17:45.190Z,100851.91
2024-02-13T03:20:13.967Z,100850.16
2024-02-13T03:22:40.973Z,100860.72
2024-02-13T03:25:08.555Z,100859.81
2024-02-13T03:27:35.415Z,100861.59
2024-02-13T03:30:03.257Z,100873.03
2024-02-13T03:32:30.511Z,100876.59
2024-02-13T03:34:57.590Z,100870.44
2024-02-13T03:37:24.468Z,100881.88
2024-02-13T03:39:51.358Z,100879.25
2024-02-13T03:42:18.205Z,100882.75
2024-02-13T03:44:46.777Z,100877.47
2024-02-13T03:47:13.955Z,100881.00
2024-02-13T03:49:41.691Z,100884.50
2024-02-13T03:52:10.724Z,100889.78
2024-02-13T03:54:37.718Z,100890.63
2024-02-13T03:57:05.891Z,100895.91
2024-02-13T03:59:32.952Z,100890.59
2024-02-13T04:02:00.521Z,100887.06
2024-02-13T04:04:27.483Z,100891.38
2024-02-13T04:06:54.435Z,100894.84
2024-02-13T04:09:21.265Z,100901.78
2024-02-13T04:11:48.157Z,100893.81
2024-02-13T04:14:15.181Z,100897.22
2024-02-13T04:16:42.599Z,100891.84
2024-02-13T04:19:09.780Z,100896.19
2024-02-13T04:21:38.897Z,100893.47
2024-02-13T04:24:09.196Z,100900.41
2024-02-13T04:26:43.310Z,100899.41
2024-02-13T04:29:10.604Z,100897.56
2024-02-13T04:31:40.326Z,100891.31
2024-02-13T04:34:07.600Z,100892.13
2024-02-13T04:36:38.288Z,100892.06
2024-02-13T04:39:07.237Z,100893.75
2024-02-13T04:41:34.338Z,100893.66
2024-02-13T04:44:01.365Z,100890.06
2024-02-13T04:46:28.181Z,100899.69
2024-02-13T04:48:58.536Z,100903.13
2024-02-13T04:51:25.489Z,100905.69
2024-02-13T04:53:52.848Z,100899.47
2024-02-13T04:56:19.865Z,100904.69
2024-02-13T04:58:46.807Z,100904.59
2024-02-13T05:01:15.411Z,100910.72
2024-02-13T05:03:48.428Z,100916.81
2024-02-13T05:06:34.366Z,100910.56
2024-02-13T05:09:01.563Z,100913.13
2024-02-13T05:11:28.703Z,100908.66
2024-02-13T05:13:57.600Z,100907.72
2024-02-13T05:16:27.853Z,100914.72
2024-02-13T05:18:55.212Z,100907.63
2024-02-13T05:21:22.448Z,100915.50
2024-02-13T05:23:50.228Z,100910.19
2024-02-13T05:26:21.284Z,100912.78
2024-02-13T05:28:50.149Z,100912.72
2024-02-13T05:31:19.044Z,100913.56
2024-02-13T05:33:46.156Z,100916.19
2024-02-13T05:36:13.364Z,100918.78
2024-02-13T05:38:53.497Z,100927.53
2024-02-13T05:41:20.420Z,100925.69
2024-02-13T05:43:47.266Z,100916.88
2024-02-13T05:46:14.580Z,100920.34
2024-02-13T05:48:44.516Z,100931.72
2024-02-13T05:51:12.879Z,100919.41
2024-02-13T05:53:43.468Z,100922.84
2024-02-13T05:56:13.239Z,100927.22
2024-02-13T05:58:40.671Z,100924.53
2024-02-13T06:01:09.002Z,100925.44
2024-02-13T06:03:35.976Z,100923.59
2024-02-13T06:06:03.700Z,100919.19
2024-02-13T06:08:30.810Z,100927.91
2024-02-13T06:11:00.340Z,100931.41
2024-02-13T06:13:27.835Z,100930.50
2024-02-13T06:15:57.883Z,100927.81
2024-02-13T06:18:25.274Z,100940.94
2024-02-13T06:20:52.350Z,100940.03
2024-02-13T06:23:19.350Z,100936.47
2024-02-13T06:25:46.247Z,100936.47
2024-02-13T06:28:13.150Z,100947.84
2024-02-13T06:30:40.757Z,100946.94
2024-02-13T06:33:08.918Z,100954.84
2024-02-13T06:35:35.936Z,100958.31
2024-02-13T06:38:02.748Z,100960.94
2024-02-13T06:40:30.612Z,100975.88
2024-02-13T06:42:57.999Z,100970.59
2024-02-13T06:45:26.970Z,100978.50
2024-02-13T06:47:54.295Z,100977.63
2024-02-13T06:50:21.464Z,100977.59
2024-02-13T06:52:53.112Z,100981.16
2024-02-13T06:55:22.987Z,100977.66
2024-02-13T06:57:49.795Z,100985.56
2024-02-13T07:00:17.554Z,100989.09
2024-02-13T07:02:44.939Z,100992.56
2024-02-13T07:05:12.585Z,101000.56
2024-02-13T07:07:46.739Z,100994.44
2024-02-13T07:10:17.157Z,101009.38
2024-02-13T07:12:45.027Z,101005.13
2024-02-13T07:15:12.399Z,101008.69
2024-02-13T07:17:49.031Z,101006.13
2024-02-13T07:20:24.790Z,101003.56
2024-02-13T07:22:52.115Z,101022.97
2024-02-13T07:25:19.196Z,101012.56
2024-02-13T07:27:48.483Z,101012.69
2024-02-13T07:30:16.584Z,101021.63
2024-02-13T07:32:45.877Z,101027.06
2024-02-13T07:35:13.082Z,101019.44
2024-02-13T07:37:39.916Z,101024.06
2024-02-13T07:40:08.154Z,101026.06
2024-02-13T07:42:35.007Z,101028.16
2024-02-13T07:45:02.188Z,101026.63
2024-02-13T07:47:30.004Z,101030.44
2024-02-13T07:49:59.259Z,101032.44
2024-02-13T07:52:26.264Z,101032.72
2024-02-13T07:54:53.150Z,101029.41
2024-02-13T07:57:19.997Z,101034.91
2024-02-13T07:59:48.092Z,101039.50
2024-02-13T08:02:15.185Z,101040.56
2024-02-13T08:04:42.353Z,101045.13
2024-02-13T08:07:10.121Z,101050.56
2024-02-13T08:09:37.684Z,101046.31
2024-02-13T08:12:08.030Z,101041.97
2024-02-13T08:14:36.264Z,101037.59
2024-02-13T08:17:09.277Z,101034.13
2024-02-13T08:19:41.256Z,101034.09
2024-02-13T08:22:08.638Z,101037.59
2024-02-13T08:24:36.612Z,101039.31
2024-02-13T08:27:03.683Z,101040.16
2024-02-13T08:29:31.804Z,101037.47
2024-02-13T08:31:59.177Z,101036.50
2024-02-13T08:34:26.622Z,101039.16
2024-02-13T08:36:55.327Z,101046.19
2024-02-13T08:39:22.322Z,101047.06
2024-02-13T08:41:49.388Z,101051.53
2024-02-13T08:44:17.593Z,101045.38
2024-02-13T08:46:44.647Z,101049.84
2024-02-13T08:49:12.847Z,101047.19
2024-02-13T08:51:40.074Z,101053.38
2024-02-13T08:54:07.291Z,101054.34
2024-02-13T08:56:34.860Z,101045.53
2024-02-13T08:59:02.275Z,101055.28
2024-02-13T09:01:30.985Z,101050.88
2024-02-13T09:03:57.933Z,101062.38
2024-02-13T09:06:24.861Z,101058.84
2024-02-13T09:08:51.800Z,101067.69
2024-02-13T09:11:18.744Z,101080.03
2024-02-13T09:13:46.272Z,101075.69
2024-02-13T09:16:14.914Z,101073.91
2024-02-13T09:18:42.690Z,101083.66
2024-02-13T09:21:10.768Z,101083.69
2024-02-13T09:23:37.949Z,101091.63
2024-02-13T09:26:05.225Z,101079.31
2024-02-13T09:28:32.491Z,101080.25
2024-02-13T09:30:59.613Z,101082.94
2024-02-13T09:33:27.327Z,101086.50
2024-02-13T09:35:55.158Z,101089.19
2024-02-13T09:38:22.879Z,101094.53
2024-02-13T09:40:50.171Z,101094.53
2024-02-13T09:43:17.319Z,101100.75
2024-02-13T09:45:45.517Z,101096.38
2024-02-13T09:48:22.859Z,101101.69
2024-02-13T09:50:51.706Z,101106.09
2024-02-13T09:53:27.117Z,101100.84
2024-02-13T09:55:58.922Z,101107.94
2024-02-13T09:58:27.434Z,101100.94
2024-02-13T10:00:58.651Z,101114.19
2024-02-13T10:03:28.163Z,101104.50
2024-02-13T10:05:55.495Z,101105.41
2024-02-13T10:08:28.250Z,101107.22
2024-02-13T10:11:09.874Z,101114.34
2024-02-13T10:13:46.565Z,101123.22
2024-02-13T10:16:27.026Z,101121.50
2024-02-13T10:18:58.955Z,101120.66
2024-02-13T10:21:27.767Z,101128.59
2024-02-13T10:24:16.152Z,101128.66
2024-02-13T10:26:43.843Z,101133.97
2024-02-13T10:29:11.169Z,101126.94
2024-02-13T10:31:40.889Z,101132.28
2024-02-13T10:34:10.761Z,101131.44
2024-02-13T10:36:39.755Z,101139.44
2024-02-13T10:39:10.304Z,101135.94
2024-02-13T10:41:42.981Z,101136.81
2024-02-13T10:44:15.090Z,101146.56
2024-02-13T10:46:43.500Z,101150.09
2024-02-13T10:49:23.985Z,101148.38
2024-02-13T10:51:51.507Z,101154.56
2024-02-13T10:54:19.419Z,101150.16
2024-02-13T10:56:47.019Z,101151.09
2024-02-13T10:59:14.740Z,101151.13
2024-02-13T11:01:44.609Z,101135.22
2024-02-13T11:04:13.897Z,101148.47
2024-02-13T11:06:40.890Z,101148.50
2024-02-13T11:09:13.434Z,101141.44
2024-02-13T11:11:44.634Z,101140.56
2024-02-13T11:14:20.091Z,101138.81
2024-02-13T11:17:01.977Z,101144.13
2024-02-13T11:19:47.951Z,101134.44
2024-02-13T11:22:23.438Z,101153.88
2024-02-13T11:24:53.112Z,101147.75
2024-02-13T11:27:30.863Z,101145.09
2024-02-13T11:30:04.241Z,101149.56
2024-02-13T11:32:37.343Z,101143.38
2024-02-13T11:35:10.341Z,101146.91
2024-02-13T11:37:38.207Z,101145.19
2024-02-13T11:40:06.776Z,101139.88
2024-02-13T11:42:35.273Z,101137.25
2024-02-13T11:45:03.067Z,101136.38
2024-02-13T11:47:30.512Z,101148.75
2024-02-13T11:49:57.746Z,101147.03
2024-02-13T11:52:25.176Z,101147.91
2024-02-13T11:54:52.775Z,101139.97
2024-02-13T11:57:21.982Z,101135.56
2024-02-13T12:00:01.124Z,101140.00
2024-02-13T12:02:29.878Z,101138.25
2024-02-13T12:04:57.046Z,101138.25
2024-02-13T12:07:24.124Z,101140.06
2024-02-13T12:09:53.417Z,101140.03
2024-02-13T12:12:21.336Z,101136.50
2024-02-13T12:14:51.066Z,101136.50
2024-02-13T12:17:18.208Z,101147.13
2024-02-13T12:19:45.573Z,101141.78
2024-02-13T12:22:17.155Z,101144.47
2024-02-13T12:24:48.389Z,101146.25
2024-02-13T12:27:17.850Z,101154.19
2024-02-13T12:29:45.495Z,101138.25
2024-02-13T12:32:18.449Z,101146.22
2024-02-13T12:34:51.292Z,101140.03
2024-02-13T12:37:22.125Z,101141.81
2024-02-13T12:39:50.818Z,101134.72
2024-02-13T12:42:20.941Z,101136.50
2024-02-13T12:44:49.223Z,101135.59
2024-02-13T12:47:18.504Z,101137.38
2024-02-13T12:49:46.006Z,101132.06
2024-02-13T12:52:17.900Z,101136.47
2024-02-13T12:54:47.317Z,101134.72
2024-02-13T12:57:15.482Z,101132.06
2024-02-13T12:59:44.561Z,101139.16
2024-02-13T13:02:11.672Z,101136.47
2024-02-13T13:04:38.479Z,101127.66
2024-02-13T13:07:07.169Z,101125.88
2024-02-13T13:09:35.714Z,101125.88
2024-02-13T13:12:02.724Z,101139.13
2024-02-13T13:14:29.969Z,101122.34
2024-02-13T13:16:57.499Z,101131.09
2024-02-13T13:19:28.038Z,101140.84
2024-02-13T13:21:55.879Z,101133.75
2024-02-13T13:24:23.967Z,101129.34
2024-02-13T13:26:54.248Z,101125.81
2024-02-13T13:29:21.369Z,101137.28
2024-02-13T13:31:50.127Z,101124.91
2024-02-13T13:34:21.321Z,101131.13
2024-02-13T13:36:49.250Z,101135.53
2024-02-13T13:39:16.317Z,101137.28
2024-02-13T13:41:43.202Z,101139.03
2024-02-13T13:44:11.615Z,101136.34
2024-02-13T13:46:38.447Z,101134.59
2024-02-13T13:49:05.593Z,101145.19
2024-02-13T13:51:34.781Z,101146.97
2024-02-13T13:54:02.415Z,101139.88
2024-02-13T13:56:29.548Z,101145.19
2024-02-13T13:58:56.424Z,101141.66
2024-02-13T14:01:23.558Z,101144.31
2024-02-13T14:03:50.684Z,101139.88
2024-02-13T14:06:17.767Z,101140.78
2024-02-13T14:08:44.883Z,101136.38
2024-02-13T14:11:12.548Z,101148.75
2024-02-13T14:13:39.420Z,101146.97
2024-02-13T14:16:06.885Z,101140.75
2024-02-13T14:18:33.842Z,101145.16
2024-02-13T14:21:01.461Z,101140.72
2024-02-13T14:23:30.343Z,101138.06
2024-02-13T14:28:24.020Z,101148.63
2024-02-13T14:30:52.002Z,101142.44
2024-02-13T14:33:19.054Z,101149.47
2024-02-13T14:35:48.395Z,101146.84
2024-02-13T14:38:16.467Z,101146.81
2024-02-13T14:40:44.376Z,101145.94
2024-02-13T14:43:14.417Z,101146.78
2024-02-13T14:45:42.621Z,101149.44
2024-02-13T14:48:14.192Z,101145.91
2024-02-13T14:50:41.782Z,101160.03
2024-02-13T14:53:10.016Z,101155.63
2024-02-13T14:55:38.736Z,101153.84
2024-02-13T14:58:14.856Z,101163.56
2024-02-13T15:00:53.941Z,101161.78
2024-02-13T15:03:24.471Z,101157.41
2024-02-13T15:05:51.534Z,101169.78
2024-02-13T15:08:18.632Z,101176.00
2024-02-13T15:10:47.161Z,101173.34
2024-02-13T15:13:16.247Z,101165.41
2024-02-13T15:15:49.041Z,101173.34
2024-02-13T15:18:16.241Z,101176.88
2024-02-13T15:20:44.127Z,101180.41
2024-02-13T15:23:13.379Z,101177.75
2024-02-13T15:25:40.224Z,101180.38
2024-02-13T15:28:07.167Z,101178.59
2024-02-13T15:30:37.467Z,101186.53
2024-02-13T15:33:06.001Z,101188.25
2024-02-13T15:35:42.231Z,101189.09
2024-02-13T15:38:28.001Z,101183.75
2024-02-13T15:41:13.417Z,101185.47
2024-02-13T15:43:58.570Z,101186.34
2024-02-13T15:46:43.713Z,101181.88
2024-02-13T15:49:12.688Z,101176.53
2024-02-13T15:51:41.139Z,101180.03
2024-02-13T15:54:09.864Z,101177.31
2024-02-13T15:56:37.474Z,101179.06
2024-02-13T15:59:05.080Z,101183.44
2024-02-13T16:01:32.178Z,101179.84
2024-02-13T16:03:59.877Z,101180.66
2024-02-13T16:06:27.000Z,101186.84
2024-02-13T16:08:54.228Z,101184.16
2024-02-13T16:11:22.280Z,101185.91
2024-02-13T16:13:50.375Z,101183.19
2024-02-13T16:16:17.215Z,101185.84
2024-02-13T16:18:48.616Z,101188.44
2024-02-13T16:21:15.852Z,101181.38
2024-02-13T16:23:42.757Z,101191.06
2024-02-13T16:26:11.532Z,101189.25
2024-02-13T16:28:38.898Z,101185.69
2024-02-13T16:31:07.636Z,101188.28
2024-02-13T16:33:35.309Z,101191.78
2024-02-13T16:36:02.358Z,101193.50
2024-02-13T16:38:29.356Z,101197.88
2024-02-13T16:40:56.215Z,101202.25
2024-02-13T16:43:24.299Z,101203.94
2024-02-13T16:45:51.145Z,101209.22
2024-02-13T16:48:19.623Z,101207.41
2024-02-13T16:50:46.631Z,101209.09
2024-02-13T16:53:13.519Z,101216.13
2024-02-13T16:55:41.531Z,101228.41
2024-02-13T16:58:09.934Z,101228.41
2024-02-13T17:00:36.958Z,101226.59
2024-02-13T17:03:06.915Z,101229.16
2024-02-13T17:05:35.993Z,101234.44
2024-02-13T17:08:02.910Z,101234.41
2024-02-13T17:10:29.799Z,101231.69
2024-02-13T17:12:56.756Z,101236.91
2024-02-13T17:15:23.596Z,101236.88
2024-02-13T17:17:50.880Z,101240.38
2024-02-13T17:20:18.358Z,101239.44
2024-02-13T17:22:45.304Z,101250.88
2024-02-13T17:25:13.228Z,101247.31
2024-02-13T17:27:41.885Z,101234.91
2024-02-13T17:30:13.206Z,101242.84
2024-02-13T17:32:41.254Z,101247.25
2024-02-13T17:35:08.729Z,101248.06
2024-02-13T17:37:35.660Z,101248.06
2024-02-13T17:40:03.849Z,101258.59
2024-02-13T17:42:30.757Z,101253.28
2024-02-13T17:44:57.658Z,101255.91
2024-02-13T17:47:25.638Z,101256.78
2024-02-13T17:49:54.323Z,101254.13
2024-02-13T17:52:21.384Z,101269.13
2024-02-13T17:54:48.531Z,101265.59
2024-02-13T17:57:15.363Z,101264.78
2024-02-13T17:59:42.237Z,101259.50
2024-02-13T18:02:10.177Z,101256.88
2024-02-13T18:04:37.050Z,101261.31
2024-02-13T18:07:05.068Z,101251.56
2024-02-13T18:09:32.271Z,101248.91
2024-02-13T18:12:03.269Z,101244.50
2024-02-13T18:14:30.197Z,101243.53
2024-02-13T18:16:57.297Z,101245.28
2024-02-13T18:19:24.670Z,101254.09
2024-02-13T18:21:51.747Z,101252.31
2024-02-13T18:24:18.847Z,101245.25
2024-02-13T18:26:46.857Z,101245.22
2024-02-13T18:29:13.748Z,101254.00
2024-02-13T18:31:40.588Z,101252.22
2024-02-13T18:34:07.492Z,101252.22
2024-02-13T18:36:34.407Z,101254.00
2024-02-13T18:39:01.333Z,101250.50
2024-02-13T18:41:28.970Z,101250.50
2024-02-13T18:43:55.799Z,101242.56
2024-02-13T18:46:22.929Z,101246.97
2024-02-13T18:48:50.882Z,101239.94
2024-02-13T18:51:18.082Z,101244.31
2024-02-13T18:53:46.208Z,101241.69
2024-02-13T18:56:13.092Z,101246.97
2024-02-13T18:58:40.014Z,101245.22
2024-02-13T19:01:07.407Z,101246.13
2024-02-13T19:03:34.290Z,101245.25
2024-02-13T19:06:04.598Z,101237.28
2024-02-13T19:08:32.949Z,101238.19
2024-02-13T19:11:00.025Z,101235.53
2024-02-13T19:13:27.175Z,101238.19
2024-02-13T19:15:54.316Z,101234.69
2024-02-13T19:18:21.622Z,101239.09
2024-02-13T19:20:48.996Z,101231.19
2024-02-13T19:23:21.444Z,101231.19
2024-02-13T19:25:49.504Z,101232.09
2024-02-13T19:28:17.987Z,101227.72
2024-02-13T19:30:47.807Z,101234.78
2024-02-13T19:33:14.954Z,101232.13
2024-02-13T19:35:43.411Z,101227.75
2024-02-13T19:38:14.296Z,101222.47
2024-02-13T19:40:42.852Z,101224.25
2024-02-13T19:43:09.758Z,101225.97
2024-02-13T19:45:37.590Z,101218.03
2024-02-13T19:48:04.807Z,101222.47
2024-02-13T19:50:32.778Z,101236.53
2024-02-13T19:53:00.552Z,101222.44
2024-02-13T19:55:28.219Z,101216.25
2024-02-13T19:57:55.252Z,101218.91
2024-02-13T20:00:23.930Z,101215.41
2024-02-13T20:02:50.770Z,101206.56
2024-02-13T20:05:18.336Z,101206.53
2024-02-13T20:10:37.106Z,101206.53
2024-02-13T20:13:05.160Z,101200.38
2024-02-13T20:15:32.004Z,101205.66
2024-02-13T20:17:59.009Z,101203.88
2024-02-13T20:20:26.025Z,101206.47
2024-02-13T20:22:53.484Z,101217.03
2024-02-13T20:25:20.379Z,101218.78
2024-02-13T20:27:47.254Z,101224.09
2024-02-13T20:30:16.007Z,101213.50
2024-02-13T20:32:46.064Z,101216.13
2024-02-13T20:35:13.715Z,101224.00
2024-02-13T20:37:41.582Z,101220.47
2024-02-13T20:40:11.294Z,101216.91
2024-02-13T20:42:46.448Z,101208.09
2024-02-13T20:45:18.128Z,101213.28
2024-02-13T20:47:49.883Z,101214.16
2024-02-13T20:50:16.828Z,101207.09
2024-02-13T20:52:43.735Z,101205.28
2024-02-13T20:55:12.514Z,101196.47
2024-02-13T20:57:41.262Z,101204.34
2024-02-13T21:00:13.786Z,101206.06
2024-02-13T21:02:42.152Z,101206.00
2024-02-13T21:05:10.874Z,101203.31
2024-02-13T21:07:37.753Z,101197.09
2024-02-13T21:10:07.113Z,101203.25
2024-02-13T21:12:34.068Z,101196.22
2024-02-13T21:15:01.063Z,101199.72
2024-02-13T21:17:28.945Z,101205.00
2024-02-13T21:19:57.663Z,101202.34
2024-02-13T21:22:43.045Z,101200.59
2024-02-13T21:25:10.042Z,101200.59
2024-02-13T21:27:36.927Z,101203.31
2024-02-13T21:30:05.332Z,101197.16
2024-02-13T21:32:32.355Z,101191.00
2024-02-13T21:34:59.534Z,101185.75
2024-02-13T21:37:26.499Z,101188.44
2024-02-13T21:39:53.330Z,101188.44
2024-02-13T21:42:20.196Z,101190.19
2024-02-13T21:44:47.026Z,101181.41
2024-02-13T21:47:13.883Z,101190.25
2024-02-13T21:49:40.726Z,101197.28
2024-02-13T21:52:07.548Z,101190.25
2024-02-13T21:54:35.898Z,101180.59
2024-02-13T21:57:05.058Z,101185.88
2024-02-13T21:59:31.996Z,101171.78
2024-02-13T22:01:58.842Z,101173.53
2024-02-13T22:04:25.749Z,101172.63
2024-02-13T22:06:52.665Z,101177.88
2024-02-13T22:09:19.495Z,101166.41
2024-02-13T22:11:46.361Z,101169.91
2024-02-13T22:14:13.184Z,101167.25
2024-02-13T22:16:41.149Z,101165.44
2024-02-13T22:19:08.150Z,101161.88
2024-02-13T22:21:35.706Z,101161.81
2024-02-13T22:24:04.732Z,101168.84
2024-02-13T22:26:40.156Z,101165.28
2024-02-13T22:29:09.089Z,101164.38
2024-02-13T22:31:36.113Z,101161.75
2024-02-13T22:34:03.801Z,101168.78
2024-02-13T22:36:31.076Z,101163.50
2024-02-13T22:38:57.939Z,101161.75
2024-02-13T22:41:25.290Z,101157.34
2024-02-13T22:43:54.920Z,101152.94
2024-02-13T22:46:25.856Z,101158.22
2024-02-13T22:48:53.290Z,101165.28
2024-02-13T22:51:20.302Z,101154.72
2024-02-13T22:53:49.766Z,101152.94
2024-02-13T22:56:16.646Z,101152.94
2024-02-13T22:58:43.803Z,101153.84
2024-02-13T23:01:11.038Z,101160.91
2024-02-13T23:03:39.565Z,101145.03
2024-02-13T23:06:06.979Z,101162.69
2024-02-13T23:08:35.933Z,101160.03
2024-02-13T23:11:02.862Z,101157.44
2024-02-13T23:13:36.018Z,101144.25
2024-02-13T23:16:08.361Z,101152.22
2024-02-13T23:18:36.176Z,101150.50
2024-02-13T23:21:04.131Z,101157.56
2024-02-13T23:23:33.632Z,101154.97
2024-02-13T23:26:00.540Z,101154.09
2024-02-13T23:28:30.142Z,101154.09
2024-02-13T23:30:59.227Z,101151.50
2024-02-13T23:33:26.242Z,101159.44
2024-02-13T23:35:53.453Z,101150.66
2024-02-13T23:38:20.309Z,101144.47
2024-02-13T23:40:47.100Z,101137.47
2024-02-13T23:43:14.641Z,101132.19
2024-02-13T23:45:41.534Z,101130.47
2024-02-13T23:48:09.569Z,101137.50
2024-02-13T23:50:36.986Z,101131.38
2024-02-13T23:53:04.799Z,101136.69
2024-02-13T23:55:32.666Z,101129.66
2024-02-13T23:58:00.033Z,101127.91
